createdAt,value
2023-02-13T00:04:45.055Z,6.27
2023-02-13T00:09:47.832Z,6.26
2023-02-13T00:14:50.650Z,6.29
2023-02-13T00:19:54.869Z,6.28
2023-02-13T00:24:57.679Z,6.27
2023-02-13T00:30:00.426Z,6.29
2023-02-13T00:35:04.678Z,6.26
2023-02-13T00:40:08.840Z,6.22
2023-02-13T00:45:11.577Z,6.23
2023-02-13T00:50:15.695Z,6.22
2023-02-13T00:55:18.791Z,6.21
2023-02-13T01:00:22.091Z,6.21
2023-02-13T01:05:27.992Z,6.17
2023-02-13T01:10:30.808Z,6.20
2023-02-13T01:15:34.464Z,6.20
2023-02-13T01:20:38.536Z,6.20
2023-02-13T01:25:42.270Z,6.22
2023-02-13T01:30:45.055Z,6.18
2023-02-13T01:35:49.290Z,6.23
2023-02-13T01:40:54.498Z,6.18
2023-02-13T01:45:59.468Z,6.13
2023-02-13T01:51:08.468Z,6.13
2023-02-13T01:56:16.119Z,6.10
2023-02-13T02:01:19.094Z,6.10
2023-02-13T02:06:27.107Z,6.08
2023-02-13T02:11:36.652Z,6.11
2023-02-13T02:16:40.520Z,6.12
2023-02-13T02:22:08.131Z,6.09
2023-02-13T02:27:57.764Z,6.08
2023-02-13T02:33:13.763Z,5.95
2023-02-13T02:38:33.378Z,5.81
2023-02-13T02:43:50.940Z,5.70
2023-02-13T02:49:21.589Z,5.58
2023-02-13T02:54:47.756Z,5.49
2023-02-13T03:00:11.244Z,5.41
2023-02-13T03:05:54.500Z,5.35
2023-02-13T03:11:15.037Z,5.35
2023-02-13T03:16:39.752Z,5.37
2023-02-13T03:22:07.008Z,5.35
2023-02-13T03:27:12.838Z,5.31
2023-02-13T03:32:26.254Z,5.34
2023-02-13T03:37:54.394Z,5.35
2023-02-13T03:43:06.054Z,5.31
2023-02-13T03:48:31.308Z,5.29
2023-02-13T03:53:39.437Z,5.27
2023-02-13T03:59:04.116Z,5.19
2023-02-13T04:04:10.868Z,5.09
2023-02-13T04:09:16.996Z,4.99
2023-02-13T04:14:24.504Z,4.88
2023-02-13T04:19:28.368Z,4.79
2023-02-13T04:24:32.457Z,4.68
2023-02-13T04:29:35.225Z,4.59
2023-02-13T04:34:38.372Z,4.51
2023-02-13T04:39:42.466Z,4.40
2023-02-13T04:44:45.302Z,4.30
2023-02-13T04:49:48.127Z,4.24
2023-02-13T04:54:52.390Z,4.13
2023-02-13T04:59:55.574Z,4.09
2023-02-13T05:04:58.364Z,4.04
2023-02-13T05:10:02.427Z,3.98
2023-02-13T05:15:05.784Z,3.94
2023-02-13T05:20:09.308Z,3.93
2023-02-13T05:25:13.400Z,3.89
2023-02-13T05:30:16.706Z,3.77
2023-02-13T05:35:21.037Z,3.66
2023-02-13T05:40:25.911Z,3.56
2023-02-13T05:45:28.718Z,3.51
2023-02-13T05:50:31.499Z,3.46
2023-02-13T05:55:35.676Z,3.35
2023-02-13T06:00:38.465Z,3.27
2023-02-13T06:05:41.671Z,3.22
2023-02-13T06:10:45.847Z,3.21
2023-02-13T06:15:48.887Z,3.10
2023-02-13T06:20:52.009Z,3.06
2023-02-13T06:25:56.176Z,3.01
2023-02-13T06:30:59.812Z,2.97
2023-02-13T06:36:03.387Z,2.89
2023-02-13T06:41:10.157Z,2.82
2023-02-13T06:46:13.638Z,2.75
2023-02-13T06:51:16.485Z,2.66
2023-02-13T06:56:20.673Z,2.61
2023-02-13T07:01:23.761Z,2.58
2023-02-13T07:06:26.649Z,2.65
2023-02-13T07:11:31.053Z,2.82
2023-02-13T07:16:34.187Z,2.97
2023-02-13T07:21:38.063Z,3.18
2023-02-13T07:26:43.117Z,3.38
2023-02-13T07:31:45.940Z,3.59
2023-02-13T07:36:48.680Z,3.81
2023-02-13T07:41:53.574Z,4.05
2023-02-13T07:47:02.044Z,4.29
2023-02-13T07:52:05.586Z,4.49
2023-02-13T07:57:09.943Z,4.69
2023-02-13T08:02:15.096Z,4.88
2023-02-13T08:07:18.863Z,4.95
2023-02-13T08:12:23.410Z,5.14
2023-02-13T08:17:26.834Z,5.38
2023-02-13T08:22:30.001Z,5.57
2023-02-13T08:27:35.089Z,5.68
2023-02-13T08:32:53.137Z,5.83
2023-02-13T08:37:56.850Z,5.90
2023-02-13T08:43:05.586Z,6.09
2023-02-13T08:48:08.563Z,6.28
2023-02-13T08:53:11.342Z,6.49
2023-02-13T08:58:15.486Z,6.55
2023-02-13T09:03:19.159Z,6.78
2023-02-13T09:08:24.311Z,6.83
2023-02-13T09:13:29.652Z,6.92
2023-02-13T09:18:32.941Z,6.99
2023-02-13T09:23:37.537Z,7.21
2023-02-13T09:28:42.170Z,7.36
2023-02-13T09:33:46.210Z,7.52
2023-02-13T09:38:52.735Z,7.72
2023-02-13T09:44:00.246Z,7.89
2023-02-13T09:49:08.761Z,8.01
2023-02-13T09:54:19.197Z,8.34
2023-02-13T09:59:37.812Z,8.50
2023-02-13T10:04:49.075Z,8.76
2023-02-13T10:10:01.840Z,9.01
2023-02-13T10:15:18.944Z,8.81
2023-02-13T10:20:30.572Z,9.25
2023-02-13T10:25:47.688Z,9.79
2023-02-13T10:30:53.874Z,9.67
2023-02-13T10:36:03.899Z,10.07
2023-02-13T10:41:23.308Z,10.43
2023-02-13T10:46:36.122Z,10.61
2023-02-13T10:51:46.373Z,10.75
2023-02-13T10:56:58.071Z,11.00
2023-02-13T11:02:10.463Z,11.19
2023-02-13T11:07:16.148Z,11.63
2023-02-13T11:12:26.143Z,11.79
2023-02-13T11:17:32.992Z,12.40
2023-02-13T11:22:39.251Z,12.48
2023-02-13T11:27:42.130Z,12.50
2023-02-13T11:32:59.038Z,12.68
2023-02-13T11:38:15.222Z,12.75
2023-02-13T11:43:21.008Z,13.43
2023-02-13T11:48:25.139Z,13.20
2023-02-13T11:53:32.515Z,14.21
2023-02-13T11:58:35.597Z,14.01
2023-02-13T12:03:42.161Z,13.99
2023-02-13T12:08:47.813Z,14.68
2023-02-13T12:13:52.541Z,14.79
2023-02-13T12:19:01.417Z,15.33
2023-02-13T12:24:12.059Z,15.32
2023-02-13T12:29:34.258Z,15.24
2023-02-13T12:35:25.482Z,15.58
2023-02-13T12:40:59.323Z,15.28
2023-02-13T12:46:07.634Z,15.96
2023-02-13T12:51:28.589Z,16.18
2023-02-13T12:56:52.318Z,15.59
2023-02-13T13:02:23.280Z,15.03
2023-02-13T13:07:54.402Z,14.99
2023-02-13T13:13:10.237Z,14.17
2023-02-13T13:18:23.396Z,13.64
2023-02-13T13:23:32.790Z,13.19
2023-02-13T13:28:42.492Z,13.32
2023-02-13T13:33:47.846Z,13.13
2023-02-13T13:39:00.599Z,13.11
2023-02-13T13:44:19.200Z,12.63
2023-02-13T13:49:36.534Z,12.67
2023-02-13T13:54:39.370Z,12.86
2023-02-13T14:00:25.999Z,12.47
2023-02-13T14:05:31.503Z,12.32
2023-02-13T14:11:06.952Z,12.29
2023-02-13T14:16:13.265Z,12.25
2023-02-13T14:21:23.942Z,12.34
2023-02-13T14:26:33.367Z,12.20
2023-02-13T14:31:40.274Z,12.18
2023-02-13T14:36:46.485Z,12.22
2023-02-13T14:41:59.923Z,12.10
2023-02-13T14:47:07.737Z,12.02
2023-02-13T14:52:19.399Z,11.96
2023-02-13T14:57:26.886Z,11.92
2023-02-13T15:02:34.770Z,11.83
2023-02-13T15:07:44.322Z,11.81
2023-02-13T15:12:47.264Z,11.77
2023-02-13T15:17:52.184Z,11.76
2023-02-13T15:22:55.460Z,11.68
2023-02-13T15:28:00.391Z,11.63
2023-02-13T15:33:16.800Z,11.55
2023-02-13T15:38:21.715Z,11.51
2023-02-13T15:43:35.413Z,11.44
2023-02-13T15:48:39.504Z,11.35
2023-02-13T15:53:51.974Z,11.22
2023-02-13T15:58:56.667Z,11.01
2023-02-13T16:04:05.341Z,10.93
2023-02-13T16:09:08.652Z,10.82
2023-02-13T16:14:18.568Z,10.67
2023-02-13T16:19:33.700Z,10.55
2023-02-13T16:24:37.456Z,10.37
2023-02-13T16:29:49.362Z,10.20
2023-02-13T16:34:56.954Z,10.06
2023-02-13T16:40:34.250Z,9.88
2023-02-13T16:45:37.406Z,9.68
2023-02-13T16:50:42.260Z,9.50
2023-02-13T16:55:45.230Z,9.31
2023-02-13T17:00:51.572Z,9.02
2023-02-13T17:05:56.202Z,8.68
2023-02-13T17:11:07.434Z,8.49
2023-02-13T17:16:11.198Z,8.11
2023-02-13T17:21:15.332Z,7.90
2023-02-13T17:26:18.090Z,7.74
2023-02-13T17:31:21.108Z,7.68
2023-02-13T17:36:26.517Z,7.61
2023-02-13T17:41:29.786Z,7.44
2023-02-13T17:46:32.640Z,7.25
2023-02-13T17:51:39.956Z,7.07
2023-02-13T17:56:42.743Z,6.83
2023-02-13T18:01:45.484Z,6.63
2023-02-13T18:06:52.897Z,6.40
2023-02-13T18:12:05.105Z,6.20
2023-02-13T18:17:08.952Z,5.99
2023-02-13T18:22:14.340Z,5.82
2023-02-13T18:27:17.892Z,5.64
2023-02-13T18:32:20.667Z,5.48
2023-02-13T18:37:24.856Z,5.34
2023-02-13T18:42:28.091Z,5.16
2023-02-13T18:47:30.832Z,5.07
2023-02-13T18:52:35.175Z,4.91
2023-02-13T18:57:38.386Z,4.90
2023-02-13T19:02:41.240Z,4.91
2023-02-13T19:07:45.984Z,4.87
2023-02-13T19:12:49.462Z,4.72
2023-02-13T19:17:52.514Z,4.73
2023-02-13T19:22:56.626Z,4.62
2023-02-13T19:27:59.385Z,4.50
2023-02-13T19:33:02.098Z,4.48
2023-02-13T19:38:06.273Z,4.33
2023-02-13T19:43:09.162Z,4.19
2023-02-13T19:48:12.060Z,4.14
2023-02-13T19:53:17.462Z,4.08
2023-02-13T19:58:20.275Z,3.96
2023-02-13T20:03:23.185Z,3.85
2023-02-13T20:08:27.358Z,3.68
2023-02-13T20:13:31.984Z,3.44
2023-02-13T20:18:35.544Z,3.38
2023-02-13T20:23:39.864Z,3.32
2023-02-13T20:28:44.997Z,3.21
2023-02-13T20:33:48.464Z,3.13
2023-02-13T20:38:55.061Z,3.01
2023-02-13T20:43:59.528Z,3.04
2023-02-13T20:49:02.847Z,3.15
2023-02-13T20:54:07.231Z,3.03
2023-02-13T20:59:09.997Z,2.79
2023-02-13T21:04:14.774Z,2.62
2023-02-13T21:09:19.067Z,2.64
2023-02-13T21:14:21.956Z,2.55
2023-02-13T21:19:24.798Z,2.50
2023-02-13T21:24:28.940Z,2.45
2023-02-13T21:29:32.735Z,2.40
2023-02-13T21:34:36.146Z,2.34
2023-02-13T21:39:40.553Z,2.26
2023-02-13T21:44:43.406Z,2.22
2023-02-13T21:49:46.116Z,2.12
2023-02-13T21:54:50.432Z,1.99
2023-02-13T21:59:53.199Z,1.93
2023-02-13T22:04:55.951Z,1.82
2023-02-13T22:09:59.982Z,1.78
2023-02-13T22:15:02.785Z,1.85
2023-02-13T22:20:06.851Z,1.76
2023-02-13T22:25:11.400Z,1.72
2023-02-13T22:30:15.178Z,1.75
2023-02-13T22:35:18.024Z,1.69
2023-02-13T22:40:22.296Z,1.63
2023-02-13T22:45:25.066Z,1.53
2023-02-13T22:50:27.906Z,1.48
2023-02-13T22:55:33.551Z,1.49
2023-02-13T23:00:36.470Z,1.40
2023-02-13T23:05:40.700Z,1.46
2023-02-13T23:11:04.984Z,1.46
2023-02-13T23:16:13.423Z,1.38
2023-02-13T23:21:16.331Z,1.34
2023-02-13T23:26:20.531Z,1.48
2023-02-13T23:31:23.534Z,1.36
2023-02-13T23:36:26.486Z,1.22
2023-02-13T23:41:30.642Z,1.23
2023-02-13T23:46:33.465Z,1.19
2023-02-13T23:51:36.573Z,1.24
2023-02-13T23:56:40.666Z,1.25
